createdAt,value
2019-05-23T00:00:39.369Z,7.40
2019-05-23T00:05:46.660Z,7.67
2019-05-23T00:10:55.251Z,6.97
2019-05-23T00:15:57.960Z,6.57
2019-05-23T00:21:00.787Z,7.20
2019-05-23T00:26:04.072Z,8.00
2019-05-23T00:31:27.554Z,8.40
2019-05-23T00:36:32.149Z,8.23
2019-05-23T00:41:34.968Z,8.00
2019-05-23T00:46:38.829Z,6.73
2019-05-23T00:51:42.059Z,7.90
2019-05-23T00:56:45.079Z,7.83
2019-05-23T01:01:48.675Z,7.97
2019-05-23T01:06:51.576Z,7.00
2019-05-23T01:11:54.872Z,7.63
2019-05-23T01:16:58.432Z,7.60
2019-05-23T01:22:04.627Z,7.57
2019-05-23T01:27:07.911Z,7.53
2019-05-23T01:32:26.993Z,6.73
2019-05-23T01:37:30.224Z,7.27
2019-05-23T01:42:33.340Z,7.30
2019-05-23T01:47:36.307Z,7.90
2019-05-23T01:52:41.277Z,5.87
2019-05-23T01:57:44.355Z,4.67
2019-05-23T02:02:47.901Z,5.27
2019-05-23T02:07:50.609Z,5.50
2019-05-23T02:12:53.313Z,5.53
2019-05-23T02:17:57.289Z,5.63
2019-05-23T02:23:00.618Z,5.90
2019-05-23T02:28:04.109Z,6.90
2019-05-23T02:33:07.039Z,6.13
2019-05-23T02:38:27.991Z,6.27
2019-05-23T02:43:33.930Z,7.33
2019-05-23T02:48:41.050Z,6.97
2019-05-23T02:53:46.882Z,7.63
2019-05-23T02:59:07.201Z,7.80
2019-05-23T03:04:16.064Z,7.33
2019-05-23T03:09:23.166Z,7.00
2019-05-23T03:14:27.225Z,5.73
2019-05-23T03:19:44.212Z,7.30
2019-05-23T03:24:48.856Z,7.80
2019-05-23T03:29:52.406Z,6.30
2019-05-23T03:35:02.035Z,5.53
2019-05-23T03:40:06.684Z,5.73
2019-05-23T03:45:14.014Z,7.10
2019-05-23T03:50:18.542Z,6.77
2019-05-23T03:55:23.135Z,10.90
2019-05-23T04:00:30.735Z,9.30
2019-05-23T04:05:34.304Z,8.83
2019-05-23T04:10:37.432Z,7.50
2019-05-23T04:15:40.977Z,9.17
2019-05-23T04:20:43.987Z,8.70
2019-05-23T04:25:47.120Z,9.10
2019-05-23T04:30:52.531Z,9.13
2019-05-23T04:35:55.647Z,8.87
2019-05-23T04:40:58.357Z,9.40
2019-05-23T04:46:01.378Z,9.43
2019-05-23T04:51:05.425Z,8.67
2019-05-23T04:56:08.738Z,8.77
2019-05-23T05:01:12.732Z,8.43
2019-05-23T05:06:16.196Z,9.40
2019-05-23T05:11:20.710Z,10.27
2019-05-23T05:16:25.341Z,9.60
2019-05-23T05:21:29.675Z,10.33
2019-05-23T05:26:33.996Z,10.77
2019-05-23T05:31:38.155Z,10.37
2019-05-23T05:36:42.102Z,10.17
2019-05-23T05:41:46.429Z,10.50
2019-05-23T05:46:51.297Z,11.90
2019-05-23T05:51:55.646Z,11.53
2019-05-23T05:57:00.159Z,11.40
2019-05-23T06:02:07.678Z,10.93
2019-05-23T06:07:23.911Z,11.70
2019-05-23T06:12:26.799Z,12.90
2019-05-23T06:17:30.585Z,11.93
2019-05-23T06:22:33.644Z,10.80
2019-05-23T06:27:37.785Z,11.37
2019-05-23T06:32:40.936Z,10.67
2019-05-23T06:37:43.900Z,9.77
2019-05-23T06:42:50.295Z,8.80
2019-05-23T06:47:51.442Z,10.17
2019-05-23T06:52:55.011Z,9.20
2019-05-23T06:57:57.888Z,8.07
2019-05-23T07:03:01.127Z,5.90
2019-05-23T07:08:04.399Z,5.50
2019-05-23T07:13:07.274Z,5.37
2019-05-23T07:18:09.974Z,5.43
2019-05-23T07:23:14.058Z,5.40
2019-05-23T07:28:16.961Z,4.20
2019-05-23T07:33:19.722Z,4.53
2019-05-23T07:38:22.448Z,4.43
2019-05-23T07:43:25.881Z,4.27
2019-05-23T07:48:30.771Z,4.73
2019-05-23T07:53:55.967Z,3.30
2019-05-23T07:58:59.113Z,2.97
2019-05-23T08:04:19.598Z,3.13
2019-05-23T08:09:09.013Z,2.50
2019-05-23T08:14:12.621Z,2.50
2019-05-23T08:19:19.282Z,1.13
2019-05-23T08:24:20.239Z,1.30
2019-05-23T08:29:26.067Z,1.20
2019-05-23T08:34:40.599Z,1.20
2019-05-23T08:39:33.055Z,1.00
2019-05-23T08:44:36.012Z,0.90
2019-05-23T08:49:38.739Z,1.30
2019-05-23T08:54:42.684Z,2.10
2019-05-23T08:59:45.709Z,1.50
2019-05-23T09:05:03.746Z,0.97
2019-05-23T09:09:54.338Z,1.13
2019-05-23T09:14:58.971Z,1.47
2019-05-23T09:20:02.535Z,1.20
2019-05-23T09:25:07.840Z,1.00
2019-05-23T09:30:16.512Z,1.40
2019-05-23T09:35:24.869Z,1.13
2019-05-23T09:40:29.474Z,1.10
2019-05-23T09:45:34.023Z,1.33
2019-05-23T09:50:39.622Z,1.50
2019-05-23T09:55:44.994Z,1.53
2019-05-23T10:00:53.579Z,1.27
2019-05-23T10:05:57.581Z,1.53
2019-05-23T10:11:01.496Z,2.17
2019-05-23T10:16:09.610Z,1.73
2019-05-23T10:21:14.075Z,2.10
2019-05-23T10:26:19.464Z,2.13
2019-05-23T10:31:22.222Z,2.00
2019-05-23T10:36:24.993Z,2.47
2019-05-23T10:41:28.021Z,3.00
2019-05-23T10:46:31.169Z,2.60
2019-05-23T10:51:33.900Z,3.30
2019-05-23T10:56:36.851Z,3.10
2019-05-23T11:01:39.689Z,4.33
2019-05-23T11:06:42.778Z,4.20
2019-05-23T11:11:45.545Z,4.17
2019-05-23T11:16:48.923Z,5.27
2019-05-23T11:21:54.119Z,5.80
2019-05-23T11:26:56.979Z,5.30
2019-05-23T11:32:00.740Z,4.90
2019-05-23T11:37:03.529Z,4.90
2019-05-23T11:42:06.248Z,3.50
2019-05-23T11:47:10.244Z,4.00
2019-05-23T11:52:12.989Z,3.67
2019-05-23T11:57:16.162Z,4.53
2019-05-23T12:02:41.307Z,4.30
2019-05-23T12:07:44.624Z,4.50
2019-05-23T12:12:48.451Z,5.20
2019-05-23T12:17:51.438Z,4.93
2019-05-23T12:22:54.318Z,5.70
2019-05-23T12:27:57.238Z,5.10
2019-05-23T12:33:00.107Z,5.87
2019-05-23T12:38:03.064Z,4.73
2019-05-23T12:43:05.945Z,4.97
2019-05-23T12:48:16.002Z,6.20
2019-05-23T12:53:18.930Z,6.27
2019-05-23T12:58:23.162Z,7.10
2019-05-23T13:03:26.293Z,5.90
2019-05-23T13:08:29.212Z,6.40
2019-05-23T13:13:31.939Z,6.43
2019-05-23T13:18:34.754Z,6.90
2019-05-23T13:23:37.792Z,5.80
2019-05-23T13:28:40.537Z,6.93
2019-05-23T13:33:43.452Z,6.40
2019-05-23T13:38:46.390Z,7.13
2019-05-23T13:43:49.220Z,6.57
2019-05-23T13:48:51.952Z,5.73
2019-05-23T13:53:54.679Z,6.33
2019-05-23T13:58:57.593Z,6.43
2019-05-23T14:04:00.572Z,6.40
2019-05-23T14:09:05.406Z,6.90
2019-05-23T14:14:08.673Z,7.03
2019-05-23T14:19:12.000Z,5.93
2019-05-23T14:24:14.900Z,6.60
2019-05-23T14:29:17.810Z,6.30
2019-05-23T14:34:21.097Z,6.03
2019-05-23T14:39:34.803Z,6.13
2019-05-23T14:44:37.826Z,7.60
2019-05-23T14:49:45.415Z,6.80
2019-05-23T14:54:53.014Z,7.60
2019-05-23T14:59:56.032Z,6.97
2019-05-23T15:04:59.076Z,7.53
2019-05-23T15:10:02.002Z,6.53
2019-05-23T15:15:05.190Z,6.10
2019-05-23T15:20:08.103Z,6.13
2019-05-23T15:25:11.010Z,6.07
2019-05-23T15:30:14.115Z,7.00
2019-05-23T15:35:17.038Z,6.30
2019-05-23T15:40:20.140Z,6.90
2019-05-23T15:45:22.932Z,6.13
2019-05-23T15:50:30.455Z,6.87
2019-05-23T15:55:42.146Z,7.00
2019-05-23T16:00:52.943Z,6.03
2019-05-23T16:05:55.941Z,6.90
2019-05-23T16:10:59.100Z,6.40
2019-05-23T16:16:02.119Z,6.30
2019-05-23T16:21:05.114Z,6.90
2019-05-23T16:26:11.449Z,6.10
2019-05-23T16:31:13.034Z,6.80
2019-05-23T16:36:16.009Z,5.77
2019-05-23T16:41:18.824Z,5.53
2019-05-23T16:46:21.557Z,7.27
2019-05-23T16:51:24.267Z,5.83
2019-05-23T16:56:35.703Z,6.10
2019-05-23T17:02:05.592Z,6.00
2019-05-23T17:07:14.055Z,4.70
2019-05-23T17:12:36.489Z,5.37
2019-05-23T17:18:01.419Z,5.70
2019-05-23T17:23:11.171Z,6.30
2019-05-23T17:28:23.597Z,6.10
2019-05-23T17:33:27.713Z,6.03
2019-05-23T17:38:30.533Z,5.37
2019-05-23T17:43:33.436Z,5.43
2019-05-23T17:48:36.163Z,6.30
2019-05-23T17:53:39.127Z,6.10
2019-05-23T17:58:41.827Z,8.60
2019-05-23T18:03:44.568Z,5.97
2019-05-23T18:08:47.668Z,6.70
2019-05-23T18:13:50.697Z,6.07
2019-05-23T18:18:53.479Z,5.80
2019-05-23T18:23:56.712Z,6.83
2019-05-23T18:28:59.531Z,6.17
2019-05-23T18:34:04.228Z,5.40
2019-05-23T18:39:09.565Z,6.63
2019-05-23T18:44:12.802Z,10.20
2019-05-23T18:49:17.519Z,5.37
2019-05-23T18:54:20.361Z,5.67
2019-05-23T18:59:23.267Z,6.20
2019-05-23T19:04:26.522Z,5.53
2019-05-23T19:09:29.306Z,6.10
2019-05-23T19:14:32.020Z,6.10
2019-05-23T19:19:34.899Z,6.03
2019-05-23T19:24:37.657Z,6.20
2019-05-23T19:29:40.666Z,6.37
2019-05-23T19:34:43.367Z,7.07
2019-05-23T19:39:46.075Z,7.10
2019-05-23T19:44:48.784Z,6.33
2019-05-23T19:49:51.585Z,6.50
2019-05-23T19:54:54.357Z,6.70
2019-05-23T19:59:57.078Z,7.67
2019-05-23T20:05:15.104Z,6.20
2019-05-23T20:10:19.642Z,6.00
2019-05-23T20:15:22.665Z,5.50
2019-05-23T20:20:26.269Z,6.07
2019-05-23T20:25:29.286Z,5.70
2019-05-23T20:31:01.808Z,5.60
2019-05-23T20:36:11.965Z,6.10
2019-05-23T20:41:13.071Z,6.57
2019-05-23T20:46:16.742Z,7.10
2019-05-23T20:51:20.693Z,7.60
2019-05-23T20:56:23.496Z,6.70
2019-05-23T21:01:30.258Z,7.13
2019-05-23T21:06:33.307Z,7.63
2019-05-23T21:11:36.179Z,7.60
2019-05-23T21:16:38.926Z,7.07
2019-05-23T21:21:41.932Z,8.77
2019-05-23T21:26:44.704Z,8.03
2019-05-23T21:31:47.565Z,8.00
2019-05-23T21:36:50.275Z,8.20
2019-05-23T21:41:53.411Z,9.50
2019-05-23T21:46:56.160Z,9.30
2019-05-23T21:51:59.010Z,10.30
2019-05-23T21:57:03.321Z,9.13
2019-05-23T22:02:17.962Z,9.27
2019-05-23T22:07:21.466Z,11.03
2019-05-23T22:12:24.333Z,9.00
2019-05-23T22:17:27.498Z,9.93
2019-05-23T22:22:30.200Z,10.90
2019-05-23T22:27:33.644Z,10.30
2019-05-23T22:32:36.561Z,11.30
2019-05-23T22:37:39.506Z,11.17
2019-05-23T22:42:42.219Z,12.37
2019-05-23T22:47:44.980Z,13.17
2019-05-23T22:52:47.927Z,12.07
2019-05-23T22:57:50.697Z,11.77
2019-05-23T23:02:53.517Z,11.77
2019-05-23T23:07:56.263Z,11.80
2019-05-23T23:12:58.948Z,12.43
2019-05-23T23:18:01.800Z,12.73
2019-05-23T23:23:04.517Z,11.23
2019-05-23T23:28:07.248Z,12.90
2019-05-23T23:33:10.041Z,12.90
2019-05-23T23:38:12.855Z,12.43
2019-05-23T23:43:15.565Z,13.13
2019-05-23T23:48:36.403Z,12.50
2019-05-23T23:53:56.963Z,15.27
2019-05-23T23:58:59.302Z,13.80
